Terminal Aerodrome Forecast
Issued by NWS

Current Version | Previous Version | Text Only | Print | Product List | Glossary On
Versions: 1 2 3 4 5 6 7 8 9 10 11 12 13 14 15 16 17 18 19 20 21 22 23 24 25 26 27 28 29 30 31 32 33 34
874
FTUS44 KLIX 261123
TAFHUM
TAF
KHUM 261123Z 2612/2712 16011G15KT P6SM OVC024
     FM261400 16015KT P6SM BKN040
     FM262200 18019G27KT P6SM BKN025
     FM270000 19017KT P6SM BKN015
     FM270600 31007KT 3SM -TSRA OVC015CB
     FM270900 32006KT P6SM BKN025 OVC040=

USA.gov is the U.S. government's official web portal to all federal, state and local government web resources and services.